Massies Mill, Virginia
Current Conditions -  °F | °C
As of 11:55 AM on Tuesday 27 Jan 2015 (Local Time) from KW13 Reporting Station
Overcast Overcast  
Wind Chill: 28°   Ceiling: 8000
Heat Index: 28°   Visibility: 10mi
Dew Point: 19°   Wind: 3mph
Humidity: 69%   Direction: 340°NNW
Pressure: 29.8"   Gusts: NA
Location:  37.78°N, 79°W
Report Text: KW13 271655Z AUTO 34003KT 10SM SCT026 OVC080 M02/M07 A2980 RMK AO1 T10241074
Loading
Personal Weather Stations






























Interactive Weather Map New forecast layout! Learn more

10-Day Weather Forecast

Advertisements
Track Severe Weather on mobile